createdAt,value
2023-05-14T00:02:04.284Z,55.24
2023-05-14T00:04:31.728Z,54.96
2023-05-14T00:06:59.124Z,54.75
2023-05-14T00:09:26.252Z,54.97
2023-05-14T00:11:53.390Z,54.71
2023-05-14T00:14:22.600Z,54.85
2023-05-14T00:16:50.263Z,54.82
2023-05-14T00:19:17.503Z,54.73
2023-05-14T00:21:45.063Z,55.12
2023-05-14T00:24:12.251Z,55.00
2023-05-14T00:26:39.279Z,55.07
2023-05-14T00:29:06.444Z,55.29
2023-05-14T00:31:33.675Z,55.07
2023-05-14T00:34:00.958Z,55.36
2023-05-14T00:36:28.032Z,54.93
2023-05-14T00:38:55.130Z,55.24
2023-05-14T00:41:23.510Z,55.05
2023-05-14T00:43:51.064Z,55.07
2023-05-14T00:46:18.379Z,55.00
2023-05-14T00:48:45.524Z,54.95
2023-05-14T00:51:12.802Z,54.89
2023-05-14T00:53:40.580Z,54.44
2023-05-14T00:56:08.853Z,54.44
2023-05-14T00:58:36.113Z,54.79
2023-05-14T01:01:03.651Z,54.63
2023-05-14T01:03:32.783Z,54.55
2023-05-14T01:06:12.474Z,54.41
2023-05-14T01:08:47.553Z,54.58
2023-05-14T01:11:27.935Z,54.38
2023-05-14T01:14:20.196Z,54.11
2023-05-14T01:16:50.465Z,54.24
2023-05-14T01:19:30.206Z,54.04
2023-05-14T01:22:02.194Z,54.13
2023-05-14T01:24:32.830Z,54.13
2023-05-14T01:27:11.653Z,54.26
2023-05-14T01:29:43.716Z,54.13
2023-05-14T01:32:11.620Z,54.14
2023-05-14T01:34:40.412Z,54.19
2023-05-14T01:37:14.317Z,54.08
2023-05-14T01:39:45.606Z,54.16
2023-05-14T01:42:16.026Z,54.17
2023-05-14T01:44:43.818Z,54.36
2023-05-14T01:47:11.832Z,54.33
2023-05-14T01:49:39.594Z,55.13
2023-05-14T01:52:08.691Z,54.54
2023-05-14T01:54:42.151Z,54.97
2023-05-14T01:57:09.244Z,55.95
2023-05-14T01:59:36.825Z,56.08
2023-05-14T02:02:07.230Z,56.31
2023-05-14T02:04:35.672Z,56.21
2023-05-14T02:07:05.583Z,56.05
2023-05-14T02:09:35.213Z,56.39
2023-05-14T02:12:02.469Z,57.11
2023-05-14T02:14:33.133Z,56.35
2023-05-14T02:17:06.654Z,56.95
2023-05-14T02:19:45.014Z,57.38
2023-05-14T02:22:14.738Z,57.09
2023-05-14T02:24:42.300Z,56.94
2023-05-14T02:27:13.033Z,57.14
2023-05-14T02:29:40.382Z,56.84
2023-05-14T02:32:08.216Z,56.79
2023-05-14T02:34:39.179Z,57.08
2023-05-14T02:37:06.903Z,56.98
2023-05-14T02:39:34.113Z,57.26
2023-05-14T02:42:01.417Z,56.89
2023-05-14T02:44:28.476Z,56.97
2023-05-14T02:46:55.795Z,56.87
2023-05-14T02:49:23.073Z,57.09
2023-05-14T02:51:50.178Z,57.31
2023-05-14T02:54:17.408Z,57.29
2023-05-14T02:56:44.540Z,57.67
2023-05-14T02:59:11.662Z,57.52
2023-05-14T03:01:39.922Z,57.47
2023-05-14T03:04:08.179Z,57.61
2023-05-14T03:06:36.486Z,57.68
2023-05-14T03:09:03.939Z,57.58
2023-05-14T03:11:31.327Z,57.54
2023-05-14T03:13:58.346Z,57.84
2023-05-14T03:16:25.681Z,57.93
2023-05-14T03:18:52.946Z,57.84
2023-05-14T03:21:20.382Z,57.86
2023-05-14T03:23:49.199Z,57.79
2023-05-14T03:26:21.745Z,57.82
2023-05-14T03:28:49.242Z,57.82
2023-05-14T03:31:16.354Z,57.59
2023-05-14T03:33:45.768Z,58.00
2023-05-14T03:36:13.503Z,58.03
2023-05-14T03:38:40.673Z,57.85
2023-05-14T03:41:07.735Z,57.82
2023-05-14T03:43:35.325Z,57.83
2023-05-14T03:46:02.391Z,58.02
2023-05-14T03:48:29.722Z,57.78
2023-05-14T03:50:57.027Z,57.95
2023-05-14T03:53:24.093Z,57.92
2023-05-14T03:55:51.249Z,57.88
2023-05-14T03:58:18.273Z,57.86
2023-05-14T04:00:52.065Z,58.21
2023-05-14T04:03:19.329Z,57.93
2023-05-14T04:05:47.160Z,57.98
2023-05-14T04:08:14.291Z,57.96
2023-05-14T04:10:43.255Z,57.96
2023-05-14T04:13:10.508Z,57.78
2023-05-14T04:15:40.120Z,57.73
2023-05-14T04:18:10.081Z,57.57
2023-05-14T04:20:37.410Z,57.56
2023-05-14T04:23:04.605Z,57.64
2023-05-14T04:25:31.829Z,57.56
2023-05-14T04:27:58.880Z,57.48
2023-05-14T04:30:26.649Z,57.34
2023-05-14T04:32:53.759Z,57.31
2023-05-14T04:35:24.944Z,57.63
2023-05-14T04:37:52.505Z,57.01
2023-05-14T04:40:19.981Z,57.11
2023-05-14T04:42:47.364Z,57.24
2023-05-14T04:45:14.862Z,57.56
2023-05-14T04:47:42.131Z,57.30
2023-05-14T04:50:10.025Z,57.46
2023-05-14T04:52:38.562Z,57.48
2023-05-14T04:55:09.509Z,57.13
2023-05-14T04:57:36.819Z,57.16
2023-05-14T05:00:06.263Z,56.87
2023-05-14T05:02:34.996Z,57.02
2023-05-14T05:05:02.651Z,57.19
2023-05-14T05:07:29.917Z,56.84
2023-05-14T05:09:57.093Z,56.66
2023-05-14T05:12:24.184Z,56.99
2023-05-14T05:14:54.306Z,57.07
2023-05-14T05:17:21.670Z,56.94
2023-05-14T05:19:48.736Z,56.19
2023-05-14T05:22:16.261Z,55.99
2023-05-14T05:24:43.379Z,56.14
2023-05-14T05:27:10.594Z,56.46
2023-05-14T05:29:37.859Z,56.09
2023-05-14T05:32:05.589Z,56.02
2023-05-14T05:34:32.718Z,55.77
2023-05-14T05:37:02.135Z,56.07
2023-05-14T05:39:35.102Z,55.85
2023-05-14T05:42:02.926Z,55.76
2023-05-14T05:44:30.045Z,54.79
2023-05-14T05:46:57.949Z,54.71
2023-05-14T05:49:25.008Z,54.21
2023-05-14T05:51:52.176Z,52.27
2023-05-14T05:54:19.341Z,52.41
2023-05-14T05:56:46.596Z,50.69
2023-05-14T05:59:13.704Z,50.87
2023-05-14T06:01:41.788Z,50.32
2023-05-14T06:04:08.811Z,50.66
2023-05-14T06:06:36.064Z,49.52
2023-05-14T06:09:03.325Z,49.54
2023-05-14T06:11:30.406Z,49.89
2023-05-14T06:13:57.471Z,50.09
2023-05-14T06:16:24.859Z,49.74
2023-05-14T06:18:52.926Z,49.02
2023-05-14T06:21:20.242Z,49.07
2023-05-14T06:23:47.518Z,48.96
2023-05-14T06:26:14.694Z,48.89
2023-05-14T06:28:42.074Z,48.29
2023-05-14T06:31:09.279Z,48.35
2023-05-14T06:33:36.623Z,48.35
2023-05-14T06:36:07.988Z,47.87
2023-05-14T06:38:35.503Z,48.18
2023-05-14T06:41:02.767Z,47.75
2023-05-14T06:43:30.458Z,48.48
2023-05-14T06:46:00.537Z,47.86
2023-05-14T06:48:31.125Z,48.08
2023-05-14T06:50:58.307Z,48.17
2023-05-14T06:53:25.557Z,47.77
2023-05-14T06:55:56.547Z,48.01
2023-05-14T06:58:23.795Z,48.13
2023-05-14T07:00:50.831Z,48.31
2023-05-14T07:03:18.062Z,48.51
2023-05-14T07:05:46.804Z,48.95
2023-05-14T07:08:14.252Z,49.26
2023-05-14T07:10:41.405Z,48.64
2023-05-14T07:13:08.833Z,48.22
2023-05-14T07:15:35.970Z,48.17
2023-05-14T07:18:03.139Z,48.87
2023-05-14T07:20:30.199Z,49.03
2023-05-14T07:22:57.295Z,48.66
2023-05-14T07:25:24.452Z,48.53
2023-05-14T07:27:51.875Z,48.84
2023-05-14T07:30:21.083Z,48.56
2023-05-14T07:32:48.430Z,48.45
2023-05-14T07:35:16.857Z,48.47
2023-05-14T07:37:44.452Z,48.34
2023-05-14T07:40:16.916Z,48.24
2023-05-14T07:42:47.117Z,48.14
2023-05-14T07:45:17.018Z,48.07
2023-05-14T07:47:44.210Z,47.66
2023-05-14T07:50:12.245Z,47.92
2023-05-14T07:52:39.373Z,48.08
2023-05-14T07:55:07.322Z,47.72
2023-05-14T07:57:34.396Z,47.85
2023-05-14T08:00:01.512Z,47.67
2023-05-14T08:02:28.794Z,47.57
2023-05-14T08:04:56.183Z,47.48
2023-05-14T08:07:23.192Z,46.91
2023-05-14T08:09:50.842Z,46.49
2023-05-14T08:12:20.969Z,45.74
2023-05-14T08:14:51.022Z,45.57
2023-05-14T08:17:20.979Z,45.75
2023-05-14T08:19:54.770Z,44.95
2023-05-14T08:22:22.032Z,44.83
2023-05-14T08:24:49.784Z,44.20
2023-05-14T08:27:22.152Z,43.97
2023-05-14T08:29:49.761Z,43.50
2023-05-14T08:32:23.347Z,42.89
2023-05-14T08:34:54.472Z,42.23
2023-05-14T08:37:23.876Z,41.41
2023-05-14T08:39:53.274Z,41.03
2023-05-14T08:42:22.317Z,41.03
2023-05-14T08:44:53.519Z,40.92
2023-05-14T08:47:22.701Z,39.93
2023-05-14T08:50:04.626Z,38.00
2023-05-14T08:52:35.643Z,38.30
2023-05-14T08:55:05.667Z,37.23
2023-05-14T08:57:38.886Z,36.83
2023-05-14T09:01:02.930Z,36.25
2023-05-14T09:03:31.582Z,36.04
2023-05-14T09:06:04.619Z,35.61
2023-05-14T09:08:38.860Z,34.59
2023-05-14T09:11:06.111Z,35.78
2023-05-14T09:13:35.646Z,35.31
2023-05-14T09:16:04.320Z,35.31
2023-05-14T09:18:32.254Z,35.03
2023-05-14T09:21:09.340Z,34.46
2023-05-14T09:23:42.027Z,34.32
2023-05-14T09:26:14.703Z,33.50
2023-05-14T09:28:42.230Z,34.54
2023-05-14T09:31:10.298Z,33.98
2023-05-14T09:33:37.545Z,34.79
2023-05-14T09:36:09.659Z,34.43
2023-05-14T09:38:39.519Z,35.41
2023-05-14T09:41:07.701Z,35.01
2023-05-14T09:43:40.637Z,33.75
2023-05-14T09:46:10.060Z,34.27
2023-05-14T09:48:37.384Z,34.96
2023-05-14T09:51:05.953Z,36.00
2023-05-14T09:53:34.879Z,34.79
2023-05-14T09:56:02.690Z,34.94
2023-05-14T09:58:30.270Z,35.01
2023-05-14T10:00:59.004Z,34.23
2023-05-14T10:03:29.605Z,33.79
2023-05-14T10:06:09.409Z,33.65
2023-05-14T10:08:41.414Z,33.23
2023-05-14T10:11:14.436Z,32.91
2023-05-14T10:13:53.534Z,33.70
2023-05-14T10:16:35.523Z,33.95
2023-05-14T10:19:12.364Z,33.14
2023-05-14T10:21:42.105Z,34.15
2023-05-14T10:24:11.385Z,34.51
2023-05-14T10:26:42.370Z,33.55
2023-05-14T10:29:13.412Z,33.72
2023-05-14T10:31:54.063Z,35.01
2023-05-14T10:34:48.797Z,34.52
2023-05-14T10:37:39.195Z,35.13
2023-05-14T10:40:15.916Z,35.94
2023-05-14T10:42:47.216Z,37.88
2023-05-14T10:45:18.109Z,36.82
2023-05-14T10:47:49.297Z,38.26
2023-05-14T10:50:17.817Z,37.83
2023-05-14T10:52:46.005Z,38.17
2023-05-14T10:55:20.212Z,38.35
2023-05-14T10:57:50.117Z,36.85
2023-05-14T11:00:17.953Z,36.77
2023-05-14T11:02:47.153Z,37.01
2023-05-14T11:05:17.512Z,38.75
2023-05-14T11:07:49.052Z,37.97
2023-05-14T11:10:22.258Z,37.33
2023-05-14T11:12:53.431Z,37.40
2023-05-14T11:15:28.989Z,37.29
2023-05-14T11:17:58.586Z,38.24
2023-05-14T11:20:27.814Z,38.01
2023-05-14T11:22:58.487Z,37.67
2023-05-14T11:25:30.922Z,37.32
2023-05-14T11:28:00.994Z,37.06
2023-05-14T11:30:31.240Z,37.73
2023-05-14T11:33:02.219Z,37.76
2023-05-14T11:35:33.551Z,38.09
2023-05-14T11:38:01.508Z,37.41
2023-05-14T11:40:39.050Z,36.70
2023-05-14T11:43:08.922Z,35.49
2023-05-14T11:45:38.706Z,36.55
2023-05-14T11:48:15.415Z,38.24
2023-05-14T11:50:49.995Z,38.75
2023-05-14T11:53:32.066Z,38.13
2023-05-14T11:56:00.108Z,37.88
2023-05-14T11:58:32.663Z,37.06
2023-05-14T12:01:00.305Z,35.99
2023-05-14T12:03:32.850Z,36.11
2023-05-14T12:06:02.026Z,36.27
2023-05-14T12:08:31.585Z,35.53
2023-05-14T12:11:07.493Z,35.40
2023-05-14T12:13:39.952Z,36.19
2023-05-14T12:16:10.570Z,36.61
2023-05-14T12:18:37.931Z,37.86
2023-05-14T12:21:08.696Z,38.42
2023-05-14T12:23:36.008Z,38.72
2023-05-14T12:26:09.036Z,38.27
2023-05-14T12:28:43.708Z,38.19
2023-05-14T12:31:12.116Z,38.13
2023-05-14T12:33:46.108Z,38.34
2023-05-14T12:36:21.355Z,39.95
2023-05-14T12:38:59.137Z,39.60
2023-05-14T12:41:26.269Z,40.75
2023-05-14T12:44:01.150Z,41.54
2023-05-14T12:46:29.180Z,41.24
2023-05-14T12:48:57.242Z,41.19
2023-05-14T12:51:33.338Z,40.74
2023-05-14T12:54:05.297Z,40.32
2023-05-14T12:56:38.392Z,40.77
2023-05-14T12:59:06.691Z,41.23
2023-05-14T13:01:38.702Z,41.35
2023-05-14T13:04:06.512Z,41.08
2023-05-14T13:06:35.115Z,41.53
2023-05-14T13:09:04.440Z,41.11
2023-05-14T13:11:34.577Z,41.26
2023-05-14T13:14:07.137Z,42.88
2023-05-14T13:16:39.200Z,43.47
2023-05-14T13:19:06.665Z,43.40
2023-05-14T13:21:39.362Z,44.16
2023-05-14T13:24:09.624Z,43.55
2023-05-14T13:26:39.638Z,43.75
2023-05-14T13:29:09.352Z,45.14
2023-05-14T13:31:46.474Z,44.68
2023-05-14T13:34:19.828Z,44.86
2023-05-14T13:36:53.041Z,46.89
2023-05-14T13:39:30.153Z,48.29
2023-05-14T13:41:57.487Z,50.76
2023-05-14T13:44:36.405Z,55.30
2023-05-14T13:47:03.724Z,51.14
2023-05-14T13:49:35.791Z,50.64
2023-05-14T13:52:11.040Z,50.27
2023-05-14T13:54:45.483Z,50.78
2023-05-14T13:57:18.788Z,51.85
2023-05-14T13:59:52.843Z,52.27
2023-05-14T14:02:29.305Z,54.05
2023-05-14T14:05:06.025Z,54.60
2023-05-14T14:07:44.250Z,53.28
2023-05-14T14:10:19.817Z,51.41
2023-05-14T14:12:51.837Z,50.54
2023-05-14T14:15:27.508Z,49.42
2023-05-14T14:18:02.452Z,50.81
2023-05-14T14:20:38.586Z,49.46
2023-05-14T14:23:17.013Z,49.90
2023-05-14T14:25:51.667Z,50.47
2023-05-14T14:28:43.609Z,50.25
2023-05-14T14:31:17.176Z,48.22
2023-05-14T14:34:01.609Z,47.25
2023-05-14T14:36:30.907Z,47.47
2023-05-14T14:39:16.083Z,47.17
2023-05-14T14:41:50.817Z,47.20
2023-05-14T14:44:44.815Z,46.96
2023-05-14T14:47:24.035Z,44.89
2023-05-14T14:50:02.105Z,41.91
2023-05-14T14:52:46.136Z,43.67
2023-05-14T14:55:17.408Z,42.78
2023-05-14T14:57:49.371Z,43.51
2023-05-14T15:00:20.005Z,43.63
2023-05-14T15:02:57.330Z,43.93
2023-05-14T15:05:28.457Z,43.83
2023-05-14T15:08:00.613Z,43.26
2023-05-14T15:10:29.217Z,43.56
2023-05-14T15:12:59.830Z,42.66
2023-05-14T15:15:29.588Z,43.46
2023-05-14T15:18:01.782Z,42.59
2023-05-14T15:20:29.486Z,42.82
2023-05-14T15:22:59.701Z,41.14
2023-05-14T15:25:29.108Z,40.68
2023-05-14T15:27:56.308Z,40.77
2023-05-14T15:30:29.948Z,39.89
2023-05-14T15:33:02.513Z,40.17
2023-05-14T15:35:36.774Z,40.76
2023-05-14T15:38:07.333Z,40.12
2023-05-14T15:40:37.618Z,40.60
2023-05-14T15:43:06.534Z,40.31
2023-05-14T15:45:55.294Z,40.05
2023-05-14T15:48:24.998Z,39.74
2023-05-14T15:50:59.509Z,39.91
2023-05-14T15:53:34.727Z,41.20
2023-05-14T15:56:15.351Z,40.38
2023-05-14T15:58:45.244Z,39.76
2023-05-14T16:01:18.873Z,39.34
2023-05-14T16:04:01.346Z,38.69
2023-05-14T16:06:36.417Z,39.53
2023-05-14T16:09:06.436Z,40.18
2023-05-14T16:11:39.085Z,40.11
2023-05-14T16:14:11.079Z,40.52
2023-05-14T16:16:41.594Z,41.14
2023-05-14T16:19:19.741Z,41.59
2023-05-14T16:21:52.363Z,41.83
2023-05-14T16:24:26.455Z,42.55
2023-05-14T16:26:56.379Z,41.13
2023-05-14T16:29:23.631Z,40.53
2023-05-14T16:31:53.775Z,40.87
2023-05-14T16:34:23.268Z,41.79
2023-05-14T16:36:56.862Z,43.38
2023-05-14T16:39:27.996Z,43.73
2023-05-14T16:41:55.431Z,44.39
2023-05-14T16:47:14.876Z,44.67
2023-05-14T16:49:49.874Z,44.25
2023-05-14T16:52:18.565Z,44.05
2023-05-14T16:54:55.620Z,44.86
2023-05-14T16:57:29.423Z,45.62
2023-05-14T17:00:17.326Z,46.75
2023-05-14T17:02:57.647Z,46.37
2023-05-14T17:05:41.656Z,46.57
2023-05-14T17:08:17.394Z,45.55
2023-05-14T17:10:55.801Z,47.16
2023-05-14T17:13:37.302Z,46.43
2023-05-14T17:16:15.085Z,44.29
2023-05-14T17:18:50.917Z,45.29
2023-05-14T17:21:28.250Z,44.93
2023-05-14T17:24:00.997Z,46.28
2023-05-14T17:26:50.014Z,47.14
2023-05-14T17:29:31.171Z,46.85
2023-05-14T17:34:57.205Z,46.34
2023-05-14T17:37:45.741Z,46.88
2023-05-14T17:40:22.968Z,47.18
2023-05-14T17:43:07.068Z,47.71
2023-05-14T17:48:36.768Z,47.97
2023-05-14T17:51:12.286Z,48.06
2023-05-14T17:53:46.497Z,48.29
2023-05-14T17:56:21.672Z,48.62
2023-05-14T17:58:56.539Z,49.07
2023-05-14T18:01:35.315Z,49.56
2023-05-14T18:04:16.997Z,49.17
2023-05-14T18:07:15.860Z,49.41
2023-05-14T18:09:46.419Z,49.21
2023-05-14T18:12:38.611Z,48.82
2023-05-14T18:15:41.532Z,48.56
2023-05-14T18:18:11.747Z,48.13
2023-05-14T18:20:52.343Z,48.03
2023-05-14T18:23:36.734Z,47.78
2023-05-14T18:26:13.576Z,47.89
2023-05-14T18:28:54.864Z,47.92
2023-05-14T18:31:32.275Z,47.15
2023-05-14T18:34:09.446Z,48.40
2023-05-14T18:37:04.304Z,48.81
2023-05-14T18:39:35.464Z,49.00
2023-05-14T18:42:19.410Z,49.08
2023-05-14T18:44:59.701Z,49.67
2023-05-14T18:47:52.215Z,50.78
2023-05-14T18:50:25.406Z,50.86
2023-05-14T18:53:06.394Z,50.85
2023-05-14T18:55:39.969Z,50.86
2023-05-14T18:58:12.310Z,50.62
2023-05-14T19:00:49.018Z,50.71
2023-05-14T19:03:26.295Z,51.11
2023-05-14T19:06:02.550Z,50.48
2023-05-14T19:08:37.731Z,50.70
2023-05-14T19:11:15.293Z,51.21
2023-05-14T19:13:59.125Z,51.09
2023-05-14T19:16:30.796Z,51.24
2023-05-14T19:19:28.153Z,50.71
2023-05-14T19:21:56.985Z,50.39
2023-05-14T19:24:43.861Z,50.69
2023-05-14T19:27:17.558Z,50.61
2023-05-14T19:29:56.242Z,50.73
2023-05-14T19:32:27.744Z,51.08
2023-05-14T19:35:02.566Z,51.22
2023-05-14T19:37:55.826Z,50.82
2023-05-14T19:40:32.286Z,51.38
2023-05-14T19:43:05.149Z,52.24
2023-05-14T19:45:49.121Z,52.43
2023-05-14T19:48:24.258Z,52.62
2023-05-14T19:50:52.429Z,52.57
2023-05-14T19:53:40.246Z,53.46
2023-05-14T19:56:14.333Z,52.47
2023-05-14T19:58:51.135Z,52.29
2023-05-14T20:01:26.676Z,52.71
2023-05-14T20:07:06.711Z,53.20
2023-05-14T20:10:00.177Z,51.68
2023-05-14T20:12:30.000Z,52.03
2023-05-14T20:15:15.137Z,52.45
2023-05-14T20:17:54.770Z,51.84
2023-05-14T20:20:29.666Z,51.77
2023-05-14T20:23:16.911Z,51.41
2023-05-14T20:25:48.203Z,52.00
2023-05-14T20:28:20.255Z,51.51
2023-05-14T20:30:47.755Z,51.38
2023-05-14T20:33:15.207Z,51.53
2023-05-14T20:35:47.182Z,51.17
2023-05-14T20:38:25.868Z,50.93
2023-05-14T20:40:58.079Z,51.82
2023-05-14T20:43:27.309Z,51.59
2023-05-14T20:45:54.434Z,51.28
2023-05-14T20:48:22.227Z,51.84
2023-05-14T20:50:49.276Z,51.91
2023-05-14T20:53:16.259Z,51.23
2023-05-14T20:55:44.979Z,52.18
2023-05-14T20:58:12.077Z,51.62
2023-05-14T21:00:39.748Z,52.22
2023-05-14T21:03:07.188Z,52.20
2023-05-14T21:05:34.389Z,52.06
2023-05-14T21:08:01.532Z,52.20
2023-05-14T21:10:28.941Z,52.06
2023-05-14T21:12:56.093Z,52.58
2023-05-14T21:15:23.532Z,52.52
2023-05-14T21:17:50.836Z,52.21
2023-05-14T21:20:20.707Z,52.05
2023-05-14T21:22:50.927Z,51.71
2023-05-14T21:25:20.975Z,52.35
2023-05-14T21:27:48.403Z,52.80
2023-05-14T21:30:16.015Z,52.76
2023-05-14T21:32:49.474Z,52.79
2023-05-14T21:35:19.169Z,52.94
2023-05-14T21:37:46.457Z,52.72
2023-05-14T21:40:13.659Z,53.31
2023-05-14T21:42:41.047Z,53.39
2023-05-14T21:45:08.408Z,53.67
2023-05-14T21:47:35.718Z,54.02
2023-05-14T21:50:03.184Z,53.68
2023-05-14T21:52:30.495Z,53.54
2023-05-14T21:54:59.256Z,53.54
2023-05-14T21:57:28.411Z,53.54
2023-05-14T21:59:58.655Z,53.47
2023-05-14T22:02:29.309Z,53.95
2023-05-14T22:04:56.959Z,54.07
2023-05-14T22:07:24.236Z,54.08
2023-05-14T22:09:52.783Z,53.76
2023-05-14T22:12:20.020Z,53.90
2023-05-14T22:14:47.030Z,53.89
2023-05-14T22:17:19.746Z,53.90
2023-05-14T22:19:46.747Z,53.69
2023-05-14T22:22:13.861Z,54.14
2023-05-14T22:24:40.912Z,54.12
2023-05-14T22:27:08.013Z,53.83
2023-05-14T22:29:38.354Z,53.62
2023-05-14T22:32:08.401Z,53.99
2023-05-14T22:34:35.511Z,53.62
2023-05-14T22:37:03.324Z,53.75
2023-05-14T22:39:36.511Z,53.61
2023-05-14T22:42:03.694Z,53.96
2023-05-14T22:44:30.821Z,54.19
2023-05-14T22:46:58.139Z,53.93
2023-05-14T22:49:25.450Z,54.02
2023-05-14T22:51:54.406Z,53.70
2023-05-14T22:54:21.506Z,53.78
2023-05-14T22:56:54.852Z,53.88
2023-05-14T22:59:23.578Z,53.81
2023-05-14T23:01:51.261Z,53.56
2023-05-14T23:04:18.411Z,53.50
2023-05-14T23:06:45.550Z,53.83
2023-05-14T23:09:12.622Z,53.89
2023-05-14T23:11:39.822Z,53.94
2023-05-14T23:14:06.967Z,53.72
2023-05-14T23:16:35.483Z,53.44
2023-05-14T23:19:06.086Z,53.52
2023-05-14T23:21:33.825Z,53.66
2023-05-14T23:24:01.262Z,53.71
2023-05-14T23:26:28.585Z,53.36
2023-05-14T23:28:55.689Z,53.88
2023-05-14T23:31:23.974Z,53.67
2023-05-14T23:33:51.159Z,53.76
2023-05-14T23:36:20.404Z,53.62
2023-05-14T23:38:47.624Z,53.63
2023-05-14T23:41:14.850Z,53.98
2023-05-14T23:43:41.895Z,54.00
2023-05-14T23:46:09.367Z,54.12
2023-05-14T23:48:36.777Z,54.20
2023-05-14T23:51:04.105Z,53.99
2023-05-14T23:53:31.249Z,53.87
2023-05-14T23:55:58.613Z,53.89
2023-05-14T23:58:26.472Z,54.09
